sensor_id;sensor_type;location;lat;lon;timestamp;temperature;humidity
23207;DHT22;11773;52.570;13.052;2023-09-19T00:00:59;20.00;99.90
23207;DHT22;11773;52.570;13.052;2023-09-19T00:03:29;19.90;99.90
23207;DHT22;11773;52.570;13.052;2023-09-19T00:05:59;19.80;99.90
23207;DHT22;11773;52.570;13.052;2023-09-19T00:08:29;19.90;99.90
23207;DHT22;11773;52.570;13.052;2023-09-19T00:11:00;19.70;99.90
23207;DHT22;11773;52.570;13.052;2023-09-19T00:13:34;19.80;99.90
23207;DHT22;11773;52.570;13.052;2023-09-19T00:16:11;19.90;99.90
23207;DHT22;11773;52.570;13.052;2023-09-19T00:18:42;19.80;99.90
23207;DHT22;11773;52.570;13.052;2023-09-19T00:21:12;19.80;99.90
23207;DHT22;11773;52.570;13.052;2023-09-19T00:23:42;19.70;99.90
23207;DHT22;11773;52.570;13.052;2023-09-19T00:26:12;19.70;99.90
23207;DHT22;11773;52.570;13.052;2023-09-19T00:28:42;19.50;99.90
23207;DHT22;11773;52.570;13.052;2023-09-19T00:31:11;19.60;99.90
23207;DHT22;11773;52.570;13.052;2023-09-19T00:33:41;19.60;99.90
23207;DHT22;11773;52.570;13.052;2023-09-19T00:36:11;19.60;99.90
23207;DHT22;11773;52.570;13.052;2023-09-19T00:38:41;19.70;99.90
23207;DHT22;11773;52.570;13.052;2023-09-19T00:41:12;19.70;99.90
23207;DHT22;11773;52.570;13.052;2023-09-19T00:43:41;19.50;99.90
23207;DHT22;11773;52.570;13.052;2023-09-19T00:46:11;19.40;99.90
23207;DHT22;11773;52.570;13.052;2023-09-19T00:48:42;19.40;99.90
23207;DHT22;11773;52.570;13.052;2023-09-19T00:51:13;19.50;99.90
23207;DHT22;11773;52.570;13.052;2023-09-19T00:53:45;19.50;99.90
23207;DHT22;11773;52.570;13.052;2023-09-19T00:56:15;19.70;99.90
23207;DHT22;11773;52.570;13.052;2023-09-19T00:58:46;19.60;99.90
23207;DHT22;11773;52.570;13.052;2023-09-19T01:01:17;19.60;99.90
23207;DHT22;11773;52.570;13.052;2023-09-19T01:03:47;19.60;99.90
23207;DHT22;11773;52.570;13.052;2023-09-19T01:06:17;19.70;99.90
23207;DHT22;11773;52.570;13.052;2023-09-19T01:08:48;19.60;99.90
23207;DHT22;11773;52.570;13.052;2023-09-19T01:11:33;19.60;99.90
23207;DHT22;11773;52.570;13.052;2023-09-19T01:14:15;19.60;99.90
23207;DHT22;11773;52.570;13.052;2023-09-19T01:16:53;19.50;99.90
23207;DHT22;11773;52.570;13.052;2023-09-19T01:19:39;19.50;99.90
23207;DHT22;11773;52.570;13.052;2023-09-19T01:22:17;19.60;99.90
23207;DHT22;11773;52.570;13.052;2023-09-19T01:25:28;19.70;99.90
23207;DHT22;11773;52.570;13.052;2023-09-19T01:28:20;19.70;99.90
23207;DHT22;11773;52.570;13.052;2023-09-19T01:30:53;19.60;99.90
23207;DHT22;11773;52.570;13.052;2023-09-19T01:33:26;19.60;99.90
23207;DHT22;11773;52.570;13.052;2023-09-19T01:35:57;19.50;99.90
23207;DHT22;11773;52.570;13.052;2023-09-19T01:38:27;19.60;99.90
23207;DHT22;11773;52.570;13.052;2023-09-19T01:41:05;19.60;99.90
23207;DHT22;11773;52.570;13.052;2023-09-19T01:43:40;19.50;99.90
23207;DHT22;11773;52.570;13.052;2023-09-19T01:46:24;19.50;99.90
23207;DHT22;11773;52.570;13.052;2023-09-19T01:49:12;19.50;99.90
23207;DHT22;11773;52.570;13.052;2023-09-19T01:54:51;19.40;99.90
23207;DHT22;11773;52.570;13.052;2023-09-19T01:57:26;19.40;99.90
23207;DHT22;11773;52.570;13.052;2023-09-19T02:00:08;19.40;99.90
23207;DHT22;11773;52.570;13.052;2023-09-19T02:02:38;19.20;99.90
23207;DHT22;11773;52.570;13.052;2023-09-19T02:05:11;19.30;99.90
23207;DHT22;11773;52.570;13.052;2023-09-19T02:07:41;19.20;99.90
23207;DHT22;11773;52.570;13.052;2023-09-19T02:10:11;19.20;99.90
23207;DHT22;11773;52.570;13.052;2023-09-19T02:12:41;19.40;99.90
23207;DHT22;11773;52.570;13.052;2023-09-19T02:15:12;19.30;99.90
23207;DHT22;11773;52.570;13.052;2023-09-19T02:17:43;19.30;99.90
23207;DHT22;11773;52.570;13.052;2023-09-19T02:20:14;19.30;99.90
23207;DHT22;11773;52.570;13.052;2023-09-19T02:22:44;19.30;99.90
23207;DHT22;11773;52.570;13.052;2023-09-19T02:25:14;19.20;99.90
23207;DHT22;11773;52.570;13.052;2023-09-19T02:27:43;19.20;99.90
23207;DHT22;11773;52.570;13.052;2023-09-19T02:30:13;19.20;99.90
23207;DHT22;11773;52.570;13.052;2023-09-19T02:32:43;19.10;99.90
23207;DHT22;11773;52.570;13.052;2023-09-19T02:35:13;19.10;99.90
23207;DHT22;11773;52.570;13.052;2023-09-19T02:37:44;19.10;99.90
23207;DHT22;11773;52.570;13.052;2023-09-19T02:40:14;19.00;99.90
23207;DHT22;11773;52.570;13.052;2023-09-19T02:42:48;19.00;99.90
23207;DHT22;11773;52.570;13.052;2023-09-19T02:45:20;19.00;99.90
23207;DHT22;11773;52.570;13.052;2023-09-19T02:47:51;19.10;99.90
23207;DHT22;11773;52.570;13.052;2023-09-19T02:50:21;18.90;99.90
23207;DHT22;11773;52.570;13.052;2023-09-19T02:52:51;18.90;99.90
23207;DHT22;11773;52.570;13.052;2023-09-19T02:55:20;19.00;99.90
23207;DHT22;11773;52.570;13.052;2023-09-19T02:57:51;19.00;99.90
23207;DHT22;11773;52.570;13.052;2023-09-19T03:00:25;18.90;99.90
23207;DHT22;11773;52.570;13.052;2023-09-19T03:02:55;18.90;99.90
23207;DHT22;11773;52.570;13.052;2023-09-19T03:05:28;18.90;99.90
23207;DHT22;11773;52.570;13.052;2023-09-19T03:07:59;18.70;99.90
23207;DHT22;11773;52.570;13.052;2023-09-19T03:10:29;18.50;99.90
23207;DHT22;11773;52.570;13.052;2023-09-19T03:12:59;18.50;99.90
23207;DHT22;11773;52.570;13.052;2023-09-19T03:15:29;18.60;99.90
23207;DHT22;11773;52.570;13.052;2023-09-19T03:17:58;18.60;99.90
23207;DHT22;11773;52.570;13.052;2023-09-19T03:20:28;18.70;99.90
23207;DHT22;11773;52.570;13.052;2023-09-19T03:22:58;18.60;99.90
23207;DHT22;11773;52.570;13.052;2023-09-19T03:25:28;18.50;99.90
23207;DHT22;11773;52.570;13.052;2023-09-19T03:27:57;18.50;99.90
23207;DHT22;11773;52.570;13.052;2023-09-19T03:30:27;18.50;99.90
23207;DHT22;11773;52.570;13.052;2023-09-19T03:32:57;18.50;99.90
23207;DHT22;11773;52.570;13.052;2023-09-19T03:35:27;18.60;99.90
23207;DHT22;11773;52.570;13.052;2023-09-19T03:37:56;18.60;99.90
23207;DHT22;11773;52.570;13.052;2023-09-19T03:40:26;18.50;99.90
23207;DHT22;11773;52.570;13.052;2023-09-19T03:42:55;18.40;99.90
23207;DHT22;11773;52.570;13.052;2023-09-19T03:45:27;18.40;99.90
23207;DHT22;11773;52.570;13.052;2023-09-19T03:47:56;18.40;99.90
23207;DHT22;11773;52.570;13.052;2023-09-19T03:50:26;18.30;99.90
23207;DHT22;11773;52.570;13.052;2023-09-19T03:52:58;18.30;99.90
23207;DHT22;11773;52.570;13.052;2023-09-19T03:55:28;18.40;99.90
23207;DHT22;11773;52.570;13.052;2023-09-19T03:58:01;18.50;99.90
23207;DHT22;11773;52.570;13.052;2023-09-19T04:00:31;18.50;99.90
23207;DHT22;11773;52.570;13.052;2023-09-19T04:03:04;18.60;99.90
23207;DHT22;11773;52.570;13.052;2023-09-19T04:05:34;18.50;99.90
23207;DHT22;11773;52.570;13.052;2023-09-19T04:08:04;18.40;99.90
23207;DHT22;11773;52.570;13.052;2023-09-19T04:10:34;18.40;99.90
23207;DHT22;11773;52.570;13.052;2023-09-19T04:13:03;18.30;99.90
23207;DHT22;11773;52.570;13.052;2023-09-19T04:15:35;18.30;99.90
23207;DHT22;11773;52.570;13.052;2023-09-19T04:18:05;18.40;99.90
23207;DHT22;11773;52.570;13.052;2023-09-19T04:20:34;18.40;99.90
23207;DHT22;11773;52.570;13.052;2023-09-19T04:23:04;18.40;99.90
23207;DHT22;11773;52.570;13.052;2023-09-19T04:25:33;18.40;99.90
23207;DHT22;11773;52.570;13.052;2023-09-19T04:28:03;18.20;99.90
23207;DHT22;11773;52.570;13.052;2023-09-19T04:30:34;18.30;99.90
23207;DHT22;11773;52.570;13.052;2023-09-19T04:33:04;18.10;99.90
23207;DHT22;11773;52.570;13.052;2023-09-19T04:35:35;18.00;99.90
23207;DHT22;11773;52.570;13.052;2023-09-19T04:38:06;18.00;99.90
23207;DHT22;11773;52.570;13.052;2023-09-19T04:40:35;18.20;99.90
23207;DHT22;11773;52.570;13.052;2023-09-19T04:43:07;18.20;99.90
23207;DHT22;11773;52.570;13.052;2023-09-19T04:45:38;18.20;99.90
23207;DHT22;11773;52.570;13.052;2023-09-19T04:48:11;18.10;99.90
23207;DHT22;11773;52.570;13.052;2023-09-19T04:50:42;17.90;99.90
23207;DHT22;11773;52.570;13.052;2023-09-19T04:53:11;17.70;99.90
23207;DHT22;11773;52.570;13.052;2023-09-19T04:55:41;17.80;99.90
23207;DHT22;11773;52.570;13.052;2023-09-19T04:58:11;17.90;99.90
23207;DHT22;11773;52.570;13.052;2023-09-19T05:00:40;18.00;99.90
23207;DHT22;11773;52.570;13.052;2023-09-19T05:03:10;17.90;99.90
23207;DHT22;11773;52.570;13.052;2023-09-19T05:05:39;17.80;99.90
23207;DHT22;11773;52.570;13.052;2023-09-19T05:08:10;17.90;99.90
23207;DHT22;11773;52.570;13.052;2023-09-19T05:10:41;17.90;99.90
23207;DHT22;11773;52.570;13.052;2023-09-19T05:13:11;18.10;99.90
23207;DHT22;11773;52.570;13.052;2023-09-19T05:15:41;18.00;99.90
23207;DHT22;11773;52.570;13.052;2023-09-19T05:18:10;18.00;99.90
23207;DHT22;11773;52.570;13.052;2023-09-19T05:20:40;17.90;99.90
23207;DHT22;11773;52.570;13.052;2023-09-19T05:23:10;17.80;99.90
23207;DHT22;11773;52.570;13.052;2023-09-19T05:25:40;17.80;99.90
23207;DHT22;11773;52.570;13.052;2023-09-19T05:28:11;17.80;99.90
23207;DHT22;11773;52.570;13.052;2023-09-19T05:30:42;17.90;99.90
23207;DHT22;11773;52.570;13.052;2023-09-19T05:33:13;17.90;99.90
23207;DHT22;11773;52.570;13.052;2023-09-19T05:35:43;17.80;99.90
23207;DHT22;11773;52.570;13.052;2023-09-19T05:38:14;17.80;99.90
23207;DHT22;11773;52.570;13.052;2023-09-19T05:40:46;17.90;99.90
23207;DHT22;11773;52.570;13.052;2023-09-19T05:43:15;17.80;99.90
23207;DHT22;11773;52.570;13.052;2023-09-19T05:45:46;17.90;99.90
23207;DHT22;11773;52.570;13.052;2023-09-19T05:48:16;17.90;99.90
23207;DHT22;11773;52.570;13.052;2023-09-19T05:50:45;17.80;99.90
23207;DHT22;11773;52.570;13.052;2023-09-19T05:53:16;17.90;99.90
23207;DHT22;11773;52.570;13.052;2023-09-19T05:55:46;18.10;99.90
23207;DHT22;11773;52.570;13.052;2023-09-19T05:58:17;18.10;99.90
23207;DHT22;11773;52.570;13.052;2023-09-19T06:00:47;18.10;99.90
23207;DHT22;11773;52.570;13.052;2023-09-19T06:03:17;18.10;99.90
23207;DHT22;11773;52.570;13.052;2023-09-19T06:05:48;18.00;99.90
23207;DHT22;11773;52.570;13.052;2023-09-19T06:08:19;18.10;99.90
23207;DHT22;11773;52.570;13.052;2023-09-19T06:10:49;18.20;99.90
23207;DHT22;11773;52.570;13.052;2023-09-19T06:13:20;18.30;99.90
23207;DHT22;11773;52.570;13.052;2023-09-19T06:15:49;18.30;99.90
23207;DHT22;11773;52.570;13.052;2023-09-19T06:18:19;18.50;99.90
23207;DHT22;11773;52.570;13.052;2023-09-19T06:20:49;18.70;99.90
23207;DHT22;11773;52.570;13.052;2023-09-19T06:23:20;19.00;99.90
23207;DHT22;11773;52.570;13.052;2023-09-19T06:25:52;19.60;99.90
23207;DHT22;11773;52.570;13.052;2023-09-19T06:28:22;20.20;99.90
23207;DHT22;11773;52.570;13.052;2023-09-19T06:30:51;20.50;99.90
23207;DHT22;11773;52.570;13.052;2023-09-19T06:33:21;20.80;99.90
23207;DHT22;11773;52.570;13.052;2023-09-19T06:35:51;21.20;99.90
23207;DHT22;11773;52.570;13.052;2023-09-19T06:38:22;21.40;99.90
23207;DHT22;11773;52.570;13.052;2023-09-19T06:40:53;21.50;99.90
23207;DHT22;11773;52.570;13.052;2023-09-19T06:43:23;21.50;99.90
23207;DHT22;11773;52.570;13.052;2023-09-19T06:45:53;21.60;99.90
23207;DHT22;11773;52.570;13.052;2023-09-19T06:48:23;21.60;99.90
23207;DHT22;11773;52.570;13.052;2023-09-19T06:50:54;21.80;99.90
23207;DHT22;11773;52.570;13.052;2023-09-19T06:53:33;21.70;99.90
23207;DHT22;11773;52.570;13.052;2023-09-19T06:56:04;21.70;99.90
23207;DHT22;11773;52.570;13.052;2023-09-19T06:58:34;22.00;99.90
23207;DHT22;11773;52.570;13.052;2023-09-19T07:01:04;21.80;99.90
23207;DHT22;11773;52.570;13.052;2023-09-19T07:03:34;21.60;99.90
23207;DHT22;11773;52.570;13.052;2023-09-19T07:06:04;21.20;99.90
23207;DHT22;11773;52.570;13.052;2023-09-19T07:08:34;21.30;99.90
23207;DHT22;11773;52.570;13.052;2023-09-19T07:11:06;21.30;99.90
23207;DHT22;11773;52.570;13.052;2023-09-19T07:13:36;21.20;99.90
23207;DHT22;11773;52.570;13.052;2023-09-19T07:16:06;21.00;99.90
23207;DHT22;11773;52.570;13.052;2023-09-19T07:18:38;21.10;99.90
23207;DHT22;11773;52.570;13.052;2023-09-19T07:21:07;20.80;99.90
23207;DHT22;11773;52.570;13.052;2023-09-19T07:23:39;20.40;99.90
23207;DHT22;11773;52.570;13.052;2023-09-19T07:26:09;20.30;99.90
23207;DHT22;11773;52.570;13.052;2023-09-19T07:28:38;20.40;99.90
23207;DHT22;11773;52.570;13.052;2023-09-19T07:31:08;20.30;99.90
23207;DHT22;11773;52.570;13.052;2023-09-19T07:33:38;20.20;99.90
23207;DHT22;11773;52.570;13.052;2023-09-19T07:36:10;20.20;99.90
23207;DHT22;11773;52.570;13.052;2023-09-19T07:38:43;20.00;99.90
23207;DHT22;11773;52.570;13.052;2023-09-19T07:41:13;20.20;99.90
23207;DHT22;11773;52.570;13.052;2023-09-19T07:43:43;20.40;99.90
23207;DHT22;11773;52.570;13.052;2023-09-19T07:46:12;20.40;99.90
23207;DHT22;11773;52.570;13.052;2023-09-19T07:48:42;20.30;99.90
23207;DHT22;11773;52.570;13.052;2023-09-19T07:51:13;20.30;99.90
23207;DHT22;11773;52.570;13.052;2023-09-19T07:53:43;20.10;99.90
23207;DHT22;11773;52.570;13.052;2023-09-19T07:56:13;20.20;99.90
23207;DHT22;11773;52.570;13.052;2023-09-19T07:58:43;19.90;99.90
23207;DHT22;11773;52.570;13.052;2023-09-19T08:01:13;19.80;99.90
23207;DHT22;11773;52.570;13.052;2023-09-19T08:03:44;19.90;99.90
23207;DHT22;11773;52.570;13.052;2023-09-19T08:06:13;19.80;99.90
23207;DHT22;11773;52.570;13.052;2023-09-19T08:08:44;19.80;99.90
23207;DHT22;11773;52.570;13.052;2023-09-19T08:11:14;19.80;99.90
23207;DHT22;11773;52.570;13.052;2023-09-19T08:13:45;19.90;99.90
23207;DHT22;11773;52.570;13.052;2023-09-19T08:16:16;20.00;99.90
23207;DHT22;11773;52.570;13.052;2023-09-19T08:18:48;20.00;99.90
23207;DHT22;11773;52.570;13.052;2023-09-19T08:21:19;20.00;99.90
23207;DHT22;11773;52.570;13.052;2023-09-19T08:23:51;19.90;99.90
23207;DHT22;11773;52.570;13.052;2023-09-19T08:26:21;19.90;99.90
23207;DHT22;11773;52.570;13.052;2023-09-19T08:28:52;20.00;99.90
23207;DHT22;11773;52.570;13.052;2023-09-19T08:31:23;20.10;99.90
23207;DHT22;11773;52.570;13.052;2023-09-19T08:33:54;20.30;99.90
23207;DHT22;11773;52.570;13.052;2023-09-19T08:36:24;20.30;99.90
23207;DHT22;11773;52.570;13.052;2023-09-19T08:38:54;20.30;99.90
23207;DHT22;11773;52.570;13.052;2023-09-19T08:41:24;20.30;99.90
23207;DHT22;11773;52.570;13.052;2023-09-19T08:43:53;20.30;99.90
23207;DHT22;11773;52.570;13.052;2023-09-19T08:46:24;20.50;99.90
23207;DHT22;11773;52.570;13.052;2023-09-19T08:51:45;20.30;99.90
23207;DHT22;11773;52.570;13.052;2023-09-19T08:54:24;20.40;99.90
23207;DHT22;11773;52.570;13.052;2023-09-19T08:56:54;20.60;99.90
23207;DHT22;11773;52.570;13.052;2023-09-19T08:59:25;20.60;99.90
23207;DHT22;11773;52.570;13.052;2023-09-19T09:01:57;20.80;99.90
23207;DHT22;11773;52.570;13.052;2023-09-19T09:04:27;20.80;99.90
23207;DHT22;11773;52.570;13.052;2023-09-19T09:06:59;20.80;99.90
23207;DHT22;11773;52.570;13.052;2023-09-19T09:09:29;21.00;99.90
23207;DHT22;11773;52.570;13.052;2023-09-19T09:11:59;21.20;99.90
23207;DHT22;11773;52.570;13.052;2023-09-19T09:14:30;21.20;99.90
23207;DHT22;11773;52.570;13.052;2023-09-19T09:17:01;21.30;99.90
23207;DHT22;11773;52.570;13.052;2023-09-19T09:19:31;21.10;99.90
23207;DHT22;11773;52.570;13.052;2023-09-19T09:22:08;20.90;99.90
23207;DHT22;11773;52.570;13.052;2023-09-19T09:24:52;21.00;99.90
23207;DHT22;11773;52.570;13.052;2023-09-19T09:27:24;21.00;99.90
23207;DHT22;11773;52.570;13.052;2023-09-19T09:29:54;21.10;99.90
23207;DHT22;11773;52.570;13.052;2023-09-19T09:32:26;21.50;99.90
23207;DHT22;11773;52.570;13.052;2023-09-19T09:34:59;21.30;99.90
23207;DHT22;11773;52.570;13.052;2023-09-19T09:37:32;21.40;99.90
23207;DHT22;11773;52.570;13.052;2023-09-19T09:40:03;21.60;99.90
23207;DHT22;11773;52.570;13.052;2023-09-19T09:42:47;21.60;99.90
23207;DHT22;11773;52.570;13.052;2023-09-19T09:45:22;21.70;99.90
23207;DHT22;11773;52.570;13.052;2023-09-19T09:47:57;21.70;99.90
23207;DHT22;11773;52.570;13.052;2023-09-19T09:50:30;21.60;99.90
23207;DHT22;11773;52.570;13.052;2023-09-19T09:53:20;21.70;99.90
23207;DHT22;11773;52.570;13.052;2023-09-19T09:56:05;21.80;99.90
23207;DHT22;11773;52.570;13.052;2023-09-19T09:58:44;21.60;99.90
23207;DHT22;11773;52.570;13.052;2023-09-19T10:01:20;21.70;99.90
23207;DHT22;11773;52.570;13.052;2023-09-19T10:03:59;21.50;99.90
23207;DHT22;11773;52.570;13.052;2023-09-19T10:06:40;21.70;99.90
23207;DHT22;11773;52.570;13.052;2023-09-19T10:09:10;21.50;99.90
23207;DHT22;11773;52.570;13.052;2023-09-19T10:11:58;21.40;99.90
23207;DHT22;11773;52.570;13.052;2023-09-19T10:14:34;21.80;99.90
23207;DHT22;11773;52.570;13.052;2023-09-19T10:17:06;21.70;99.90
23207;DHT22;11773;52.570;13.052;2023-09-19T10:19:45;21.80;99.90
23207;DHT22;11773;52.570;13.052;2023-09-19T10:22:16;21.90;99.90
23207;DHT22;11773;52.570;13.052;2023-09-19T10:24:49;22.00;99.90
23207;DHT22;11773;52.570;13.052;2023-09-19T10:27:25;22.10;99.90
23207;DHT22;11773;52.570;13.052;2023-09-19T10:29:57;22.00;99.90
23207;DHT22;11773;52.570;13.052;2023-09-19T10:32:28;21.80;99.90
23207;DHT22;11773;52.570;13.052;2023-09-19T10:35:02;21.50;99.90
23207;DHT22;11773;52.570;13.052;2023-09-19T10:37:36;21.50;99.90
23207;DHT22;11773;52.570;13.052;2023-09-19T10:40:07;21.70;99.90
23207;DHT22;11773;52.570;13.052;2023-09-19T10:42:41;21.60;99.90
23207;DHT22;11773;52.570;13.052;2023-09-19T10:45:14;21.50;99.90
23207;DHT22;11773;52.570;13.052;2023-09-19T10:47:45;21.60;99.90
23207;DHT22;11773;52.570;13.052;2023-09-19T10:50:21;21.60;99.90
23207;DHT22;11773;52.570;13.052;2023-09-19T10:52:53;21.50;99.90
23207;DHT22;11773;52.570;13.052;2023-09-19T10:55:27;21.80;99.90
23207;DHT22;11773;52.570;13.052;2023-09-19T10:57:59;21.80;99.90
23207;DHT22;11773;52.570;13.052;2023-09-19T11:00:30;21.50;99.90
23207;DHT22;11773;52.570;13.052;2023-09-19T11:03:21;21.40;99.90
23207;DHT22;11773;52.570;13.052;2023-09-19T11:06:13;21.70;99.90
23207;DHT22;11773;52.570;13.052;2023-09-19T11:08:58;21.90;99.90
23207;DHT22;11773;52.570;13.052;2023-09-19T11:11:46;22.10;99.90
23207;DHT22;11773;52.570;13.052;2023-09-19T11:30:46;22.10;99.90
23207;DHT22;11773;52.570;13.052;2023-09-19T11:33:24;22.10;99.90
23207;DHT22;11773;52.570;13.052;2023-09-19T11:36:05;22.00;99.90
23207;DHT22;11773;52.570;13.052;2023-09-19T11:46:54;21.80;99.90
23207;DHT22;11773;52.570;13.052;2023-09-19T11:49:32;21.70;99.90
23207;DHT22;11773;52.570;13.052;2023-09-19T11:52:00;21.80;99.90
23207;DHT22;11773;52.570;13.052;2023-09-19T11:54:33;22.00;99.90
23207;DHT22;11773;52.570;13.052;2023-09-19T11:57:06;21.90;99.90
23207;DHT22;11773;52.570;13.052;2023-09-19T11:59:39;21.90;99.90
23207;DHT22;11773;52.570;13.052;2023-09-19T12:02:11;22.00;99.90
23207;DHT22;11773;52.570;13.052;2023-09-19T12:04:44;21.90;99.90
23207;DHT22;11773;52.570;13.052;2023-09-19T12:07:16;22.00;99.90
23207;DHT22;11773;52.570;13.052;2023-09-19T12:10:02;22.00;99.90
23207;DHT22;11773;52.570;13.052;2023-09-19T12:12:33;22.10;99.90
23207;DHT22;11773;52.570;13.052;2023-09-19T12:15:05;21.90;99.90
23207;DHT22;11773;52.570;13.052;2023-09-19T12:17:40;22.00;99.90
23207;DHT22;11773;52.570;13.052;2023-09-19T12:20:11;21.60;99.90
23207;DHT22;11773;52.570;13.052;2023-09-19T12:22:42;21.80;99.90
23207;DHT22;11773;52.570;13.052;2023-09-19T12:25:16;21.80;99.90
23207;DHT22;11773;52.570;13.052;2023-09-19T12:27:49;21.80;99.90
23207;DHT22;11773;52.570;13.052;2023-09-19T12:30:27;22.10;99.90
23207;DHT22;11773;52.570;13.052;2023-09-19T12:32:58;21.90;99.90
23207;DHT22;11773;52.570;13.052;2023-09-19T12:35:32;21.80;99.90
23207;DHT22;11773;52.570;13.052;2023-09-19T12:38:06;21.80;99.90
23207;DHT22;11773;52.570;13.052;2023-09-19T12:40:39;21.90;99.90
23207;DHT22;11773;52.570;13.052;2023-09-19T12:43:10;22.00;99.90
23207;DHT22;11773;52.570;13.052;2023-09-19T12:45:42;22.00;99.90
23207;DHT22;11773;52.570;13.052;2023-09-19T12:48:23;21.70;99.90
23207;DHT22;11773;52.570;13.052;2023-09-19T12:51:08;21.80;99.90
23207;DHT22;11773;52.570;13.052;2023-09-19T12:53:45;21.90;99.90
23207;DHT22;11773;52.570;13.052;2023-09-19T12:56:17;21.80;99.90
23207;DHT22;11773;52.570;13.052;2023-09-19T12:58:54;22.00;99.90
23207;DHT22;11773;52.570;13.052;2023-09-19T13:01:27;21.90;99.90
23207;DHT22;11773;52.570;13.052;2023-09-19T13:04:17;21.90;99.90
23207;DHT22;11773;52.570;13.052;2023-09-19T13:06:58;21.80;99.90
23207;DHT22;11773;52.570;13.052;2023-09-19T13:09:29;21.80;99.90
23207;DHT22;11773;52.570;13.052;2023-09-19T13:12:04;21.80;99.90
23207;DHT22;11773;52.570;13.052;2023-09-19T13:14:36;21.70;99.90
23207;DHT22;11773;52.570;13.052;2023-09-19T13:17:07;21.70;99.90
23207;DHT22;11773;52.570;13.052;2023-09-19T13:19:46;21.70;99.90
23207;DHT22;11773;52.570;13.052;2023-09-19T13:22:44;21.70;99.90
23207;DHT22;11773;52.570;13.052;2023-09-19T13:25:17;21.70;99.90
23207;DHT22;11773;52.570;13.052;2023-09-19T13:27:50;21.70;99.90
23207;DHT22;11773;52.570;13.052;2023-09-19T13:30:23;21.60;99.90
23207;DHT22;11773;52.570;13.052;2023-09-19T13:33:15;21.60;99.90
23207;DHT22;11773;52.570;13.052;2023-09-19T13:35:39;21.70;99.90
23207;DHT22;11773;52.570;13.052;2023-09-19T13:38:09;21.80;99.90
23207;DHT22;11773;52.570;13.052;2023-09-19T13:40:40;21.80;99.90
23207;DHT22;11773;52.570;13.052;2023-09-19T13:43:11;21.70;99.90
23207;DHT22;11773;52.570;13.052;2023-09-19T13:45:41;21.80;99.90
23207;DHT22;11773;52.570;13.052;2023-09-19T13:48:11;21.80;99.90
23207;DHT22;11773;52.570;13.052;2023-09-19T13:50:41;21.90;99.90
23207;DHT22;11773;52.570;13.052;2023-09-19T13:53:11;22.10;99.90
23207;DHT22;11773;52.570;13.052;2023-09-19T13:55:40;22.10;99.90
23207;DHT22;11773;52.570;13.052;2023-09-19T13:58:10;22.10;99.90
23207;DHT22;11773;52.570;13.052;2023-09-19T14:00:40;22.10;99.90
23207;DHT22;11773;52.570;13.052;2023-09-19T14:03:11;22.10;99.90
23207;DHT22;11773;52.570;13.052;2023-09-19T14:05:42;22.10;99.90
23207;DHT22;11773;52.570;13.052;2023-09-19T14:08:11;22.20;99.90
23207;DHT22;11773;52.570;13.052;2023-09-19T14:10:41;22.40;99.90
23207;DHT22;11773;52.570;13.052;2023-09-19T14:13:11;22.40;99.90
23207;DHT22;11773;52.570;13.052;2023-09-19T14:15:41;22.30;99.90
23207;DHT22;11773;52.570;13.052;2023-09-19T14:18:11;22.00;99.90
23207;DHT22;11773;52.570;13.052;2023-09-19T14:20:41;22.10;99.90
23207;DHT22;11773;52.570;13.052;2023-09-19T14:23:10;22.10;99.90
23207;DHT22;11773;52.570;13.052;2023-09-19T14:25:40;22.00;99.90
23207;DHT22;11773;52.570;13.052;2023-09-19T14:28:09;22.00;99.90
23207;DHT22;11773;52.570;13.052;2023-09-19T14:30:39;21.90;99.90
23207;DHT22;11773;52.570;13.052;2023-09-19T14:33:09;21.90;99.90
23207;DHT22;11773;52.570;13.052;2023-09-19T14:35:39;21.80;99.90
23207;DHT22;11773;52.570;13.052;2023-09-19T14:38:08;21.80;99.90
23207;DHT22;11773;52.570;13.052;2023-09-19T14:40:38;21.60;99.90
23207;DHT22;11773;52.570;13.052;2023-09-19T14:43:08;21.60;99.90
23207;DHT22;11773;52.570;13.052;2023-09-19T14:45:37;21.70;99.90
23207;DHT22;11773;52.570;13.052;2023-09-19T14:48:08;21.70;99.90
23207;DHT22;11773;52.570;13.052;2023-09-19T14:50:39;21.70;99.90
23207;DHT22;11773;52.570;13.052;2023-09-19T14:53:09;21.80;99.90
23207;DHT22;11773;52.570;13.052;2023-09-19T14:55:40;21.70;99.90
23207;DHT22;11773;52.570;13.052;2023-09-19T14:58:11;21.70;99.90
23207;DHT22;11773;52.570;13.052;2023-09-19T15:00:41;21.70;99.90
23207;DHT22;11773;52.570;13.052;2023-09-19T15:03:12;21.80;99.90
23207;DHT22;11773;52.570;13.052;2023-09-19T15:05:46;21.80;99.90
23207;DHT22;11773;52.570;13.052;2023-09-19T15:08:16;21.70;99.90
23207;DHT22;11773;52.570;13.052;2023-09-19T15:10:50;21.70;99.90
23207;DHT22;11773;52.570;13.052;2023-09-19T15:13:21;21.50;99.90
23207;DHT22;11773;52.570;13.052;2023-09-19T15:15:51;21.50;99.90
23207;DHT22;11773;52.570;13.052;2023-09-19T15:18:21;21.50;99.90
23207;DHT22;11773;52.570;13.052;2023-09-19T15:20:50;21.50;99.90
23207;DHT22;11773;52.570;13.052;2023-09-19T15:23:21;21.60;99.90
23207;DHT22;11773;52.570;13.052;2023-09-19T15:25:52;21.70;99.90
23207;DHT22;11773;52.570;13.052;2023-09-19T15:28:22;21.80;99.90
23207;DHT22;11773;52.570;13.052;2023-09-19T15:31:08;21.70;99.90
23207;DHT22;11773;52.570;13.052;2023-09-19T15:33:35;21.50;99.90
23207;DHT22;11773;52.570;13.052;2023-09-19T15:36:09;21.40;99.90
23207;DHT22;11773;52.570;13.052;2023-09-19T15:41:30;21.40;99.90
23207;DHT22;11773;52.570;13.052;2023-09-19T15:44:03;21.20;99.90
23207;DHT22;11773;52.570;13.052;2023-09-19T15:46:33;21.30;99.90
23207;DHT22;11773;52.570;13.052;2023-09-19T15:49:04;21.30;99.90
23207;DHT22;11773;52.570;13.052;2023-09-19T15:51:35;21.30;99.90
23207;DHT22;11773;52.570;13.052;2023-09-19T15:54:12;21.40;99.90
23207;DHT22;11773;52.570;13.052;2023-09-19T15:56:44;21.20;99.90
23207;DHT22;11773;52.570;13.052;2023-09-19T15:59:15;21.20;99.90
23207;DHT22;11773;52.570;13.052;2023-09-19T16:01:46;21.10;99.90
23207;DHT22;11773;52.570;13.052;2023-09-19T16:04:16;21.20;99.90
23207;DHT22;11773;52.570;13.052;2023-09-19T16:06:46;21.20;99.90
23207;DHT22;11773;52.570;13.052;2023-09-19T16:09:15;21.10;99.90
23207;DHT22;11773;52.570;13.052;2023-09-19T16:11:45;21.10;99.90
23207;DHT22;11773;52.570;13.052;2023-09-19T16:14:36;21.20;99.90
23207;DHT22;11773;52.570;13.052;2023-09-19T16:17:06;21.20;99.90
23207;DHT22;11773;52.570;13.052;2023-09-19T16:19:36;21.20;99.90